sensor_id;sensor_type;location;lat;lon;timestamp;P1;durP1;ratioP1;P2;durP2;ratioP2
76727;SDS011;65652;53.132;18.026;2023-05-24T00:01:58;17.00;;;9.50;;
76727;SDS011;65652;53.132;18.026;2023-05-24T00:04:25;14.50;;;8.40;;
76727;SDS011;65652;53.132;18.026;2023-05-24T00:06:55;14.30;;;8.80;;
76727;SDS011;65652;53.132;18.026;2023-05-24T00:09:23;13.60;;;7.60;;
76727;SDS011;65652;53.132;18.026;2023-05-24T00:11:50;15.80;;;9.60;;
76727;SDS011;65652;53.132;18.026;2023-05-24T00:14:17;13.60;;;9.10;;
76727;SDS011;65652;53.132;18.026;2023-05-24T00:16:44;16.20;;;8.80;;
76727;SDS011;65652;53.132;18.026;2023-05-24T00:19:12;15.10;;;9.00;;
76727;SDS011;65652;53.132;18.026;2023-05-24T00:21:44;17.30;;;9.40;;
76727;SDS011;65652;53.132;18.026;2023-05-24T00:24:11;15.80;;;9.20;;
76727;SDS011;65652;53.132;18.026;2023-05-24T00:26:38;17.50;;;9.40;;
76727;SDS011;65652;53.132;18.026;2023-05-24T00:29:05;17.00;;;10.80;;
76727;SDS011;65652;53.132;18.026;2023-05-24T00:31:32;16.10;;;8.60;;
76727;SDS011;65652;53.132;18.026;2023-05-24T00:33:59;15.20;;;8.10;;
76727;SDS011;65652;53.132;18.026;2023-05-24T00:36:26;13.70;;;8.30;;
76727;SDS011;65652;53.132;18.026;2023-05-24T00:38:53;16.60;;;8.90;;
76727;SDS011;65652;53.132;18.026;2023-05-24T00:41:20;15.00;;;7.90;;
76727;SDS011;65652;53.132;18.026;2023-05-24T00:43:47;14.50;;;8.80;;
76727;SDS011;65652;53.132;18.026;2023-05-24T00:48:44;16.80;;;8.90;;
76727;SDS011;65652;53.132;18.026;2023-05-24T00:51:14;12.70;;;8.30;;
76727;SDS011;65652;53.132;18.026;2023-05-24T00:53:41;16.50;;;8.70;;
76727;SDS011;65652;53.132;18.026;2023-05-24T00:56:12;14.80;;;9.00;;
76727;SDS011;65652;53.132;18.026;2023-05-24T00:58:40;11.90;;;7.60;;
76727;SDS011;65652;53.132;18.026;2023-05-24T01:01:10;13.20;;;8.30;;
76727;SDS011;65652;53.132;18.026;2023-05-24T01:03:38;14.60;;;8.00;;
76727;SDS011;65652;53.132;18.026;2023-05-24T01:06:05;13.30;;;8.20;;
76727;SDS011;65652;53.132;18.026;2023-05-24T01:14:14;12.00;;;6.90;;
76727;SDS011;65652;53.132;18.026;2023-05-24T01:17:09;12.10;;;6.90;;
76727;SDS011;65652;53.132;18.026;2023-05-24T01:28:02;11.20;;;6.50;;
76727;SDS011;65652;53.132;18.026;2023-05-24T01:30:31;10.40;;;5.90;;
76727;SDS011;65652;53.132;18.026;2023-05-24T01:32:58;13.50;;;6.50;;
76727;SDS011;65652;53.132;18.026;2023-05-24T01:35:25;11.60;;;6.60;;
76727;SDS011;65652;53.132;18.026;2023-05-24T01:37:52;11.30;;;6.00;;
76727;SDS011;65652;53.132;18.026;2023-05-24T01:40:19;10.90;;;6.80;;
76727;SDS011;65652;53.132;18.026;2023-05-24T01:43:02;11.50;;;6.30;;
76727;SDS011;65652;53.132;18.026;2023-05-24T01:46:00;10.50;;;6.30;;
76727;SDS011;65652;53.132;18.026;2023-05-24T01:51:10;13.90;;;7.20;;
76727;SDS011;65652;53.132;18.026;2023-05-24T01:53:45;9.60;;;6.20;;
76727;SDS011;65652;53.132;18.026;2023-05-24T01:56:16;13.50;;;7.40;;
76727;SDS011;65652;53.132;18.026;2023-05-24T01:58:46;10.90;;;6.10;;
76727;SDS011;65652;53.132;18.026;2023-05-24T02:01:13;10.50;;;6.70;;
76727;SDS011;65652;53.132;18.026;2023-05-24T02:03:41;13.00;;;6.90;;
76727;SDS011;65652;53.132;18.026;2023-05-24T02:06:08;10.90;;;6.90;;
76727;SDS011;65652;53.132;18.026;2023-05-24T02:08:37;13.70;;;7.10;;
76727;SDS011;65652;53.132;18.026;2023-05-24T02:11:04;11.30;;;7.20;;
76727;SDS011;65652;53.132;18.026;2023-05-24T02:13:31;11.60;;;7.50;;
76727;SDS011;65652;53.132;18.026;2023-05-24T02:15:57;11.10;;;6.80;;
76727;SDS011;65652;53.132;18.026;2023-05-24T02:18:25;11.00;;;6.40;;
76727;SDS011;65652;53.132;18.026;2023-05-24T02:20:52;14.20;;;7.00;;
76727;SDS011;65652;53.132;18.026;2023-05-24T02:23:19;10.30;;;5.40;;
76727;SDS011;65652;53.132;18.026;2023-05-24T02:25:46;10.90;;;7.10;;
76727;SDS011;65652;53.132;18.026;2023-05-24T02:28:13;10.70;;;6.90;;
76727;SDS011;65652;53.132;18.026;2023-05-24T02:30:40;10.60;;;6.00;;
76727;SDS011;65652;53.132;18.026;2023-05-24T02:33:09;13.40;;;6.40;;
76727;SDS011;65652;53.132;18.026;2023-05-24T02:38:07;9.90;;;6.00;;
76727;SDS011;65652;53.132;18.026;2023-05-24T02:40:35;9.90;;;6.00;;
76727;SDS011;65652;53.132;18.026;2023-05-24T02:43:02;10.00;;;6.50;;
76727;SDS011;65652;53.132;18.026;2023-05-24T02:45:29;10.60;;;6.40;;
76727;SDS011;65652;53.132;18.026;2023-05-24T02:47:55;8.70;;;5.80;;
76727;SDS011;65652;53.132;18.026;2023-05-24T02:50:22;12.90;;;6.70;;
76727;SDS011;65652;53.132;18.026;2023-05-24T02:52:49;8.70;;;5.50;;
76727;SDS011;65652;53.132;18.026;2023-05-24T02:55:17;9.30;;;5.70;;
76727;SDS011;65652;53.132;18.026;2023-05-24T02:57:44;9.90;;;6.10;;
76727;SDS011;65652;53.132;18.026;2023-05-24T03:02:40;10.50;;;5.70;;
76727;SDS011;65652;53.132;18.026;2023-05-24T03:05:07;10.60;;;5.10;;
76727;SDS011;65652;53.132;18.026;2023-05-24T03:07:34;9.40;;;5.30;;
76727;SDS011;65652;53.132;18.026;2023-05-24T03:10:02;11.80;;;6.40;;
76727;SDS011;65652;53.132;18.026;2023-05-24T03:12:29;10.40;;;6.30;;
76727;SDS011;65652;53.132;18.026;2023-05-24T03:14:56;11.10;;;6.40;;
76727;SDS011;65652;53.132;18.026;2023-05-24T03:17:23;12.60;;;6.70;;
76727;SDS011;65652;53.132;18.026;2023-05-24T03:19:50;13.20;;;7.20;;
76727;SDS011;65652;53.132;18.026;2023-05-24T03:22:18;11.80;;;7.00;;
76727;SDS011;65652;53.132;18.026;2023-05-24T03:24:45;10.60;;;6.20;;
76727;SDS011;65652;53.132;18.026;2023-05-24T03:27:13;10.00;;;6.40;;
76727;SDS011;65652;53.132;18.026;2023-05-24T03:29:40;10.30;;;6.30;;
76727;SDS011;65652;53.132;18.026;2023-05-24T03:32:07;10.50;;;6.00;;
76727;SDS011;65652;53.132;18.026;2023-05-24T03:34:33;10.30;;;6.50;;
76727;SDS011;65652;53.132;18.026;2023-05-24T03:37:00;10.90;;;6.30;;
76727;SDS011;65652;53.132;18.026;2023-05-24T03:39:27;12.30;;;6.60;;
76727;SDS011;65652;53.132;18.026;2023-05-24T03:42:07;10.20;;;6.70;;
76727;SDS011;65652;53.132;18.026;2023-05-24T03:44:34;10.70;;;6.60;;
76727;SDS011;65652;53.132;18.026;2023-05-24T03:47:01;10.90;;;6.60;;
76727;SDS011;65652;53.132;18.026;2023-05-24T03:51:57;11.80;;;6.40;;
76727;SDS011;65652;53.132;18.026;2023-05-24T03:54:24;10.90;;;7.50;;
76727;SDS011;65652;53.132;18.026;2023-05-24T03:56:51;10.80;;;7.20;;
76727;SDS011;65652;53.132;18.026;2023-05-24T04:01:45;11.90;;;6.50;;
76727;SDS011;65652;53.132;18.026;2023-05-24T04:04:13;10.90;;;6.90;;
76727;SDS011;65652;53.132;18.026;2023-05-24T04:06:39;10.50;;;6.30;;
76727;SDS011;65652;53.132;18.026;2023-05-24T04:09:07;12.60;;;6.90;;
76727;SDS011;65652;53.132;18.026;2023-05-24T04:11:35;11.10;;;7.30;;
76727;SDS011;65652;53.132;18.026;2023-05-24T04:14:03;14.50;;;7.60;;
76727;SDS011;65652;53.132;18.026;2023-05-24T04:16:30;15.10;;;8.00;;
76727;SDS011;65652;53.132;18.026;2023-05-24T04:18:59;10.50;;;6.80;;
76727;SDS011;65652;53.132;18.026;2023-05-24T04:21:29;10.40;;;5.70;;
76727;SDS011;65652;53.132;18.026;2023-05-24T04:23:57;13.30;;;8.80;;
76727;SDS011;65652;53.132;18.026;2023-05-24T04:26:27;11.90;;;7.60;;
76727;SDS011;65652;53.132;18.026;2023-05-24T04:28:55;12.30;;;8.20;;
76727;SDS011;65652;53.132;18.026;2023-05-24T04:31:23;14.60;;;8.50;;
76727;SDS011;65652;53.132;18.026;2023-05-24T04:33:51;12.50;;;8.40;;
76727;SDS011;65652;53.132;18.026;2023-05-24T04:36:18;13.10;;;8.00;;
76727;SDS011;65652;53.132;18.026;2023-05-24T04:38:45;15.10;;;7.90;;
76727;SDS011;65652;53.132;18.026;2023-05-24T04:41:12;14.40;;;8.80;;
76727;SDS011;65652;53.132;18.026;2023-05-24T04:43:39;12.80;;;8.20;;
76727;SDS011;65652;53.132;18.026;2023-05-24T04:46:06;14.30;;;8.40;;
76727;SDS011;65652;53.132;18.026;2023-05-24T04:48:33;14.20;;;8.30;;
76727;SDS011;65652;53.132;18.026;2023-05-24T04:51:00;11.70;;;6.80;;
76727;SDS011;65652;53.132;18.026;2023-05-24T04:53:26;13.20;;;8.90;;
76727;SDS011;65652;53.132;18.026;2023-05-24T04:55:53;16.00;;;8.70;;
76727;SDS011;65652;53.132;18.026;2023-05-24T04:58:20;13.80;;;8.30;;
76727;SDS011;65652;53.132;18.026;2023-05-24T05:00:47;13.70;;;7.60;;
76727;SDS011;65652;53.132;18.026;2023-05-24T05:03:14;13.80;;;8.50;;
76727;SDS011;65652;53.132;18.026;2023-05-24T05:05:41;12.90;;;7.90;;
76727;SDS011;65652;53.132;18.026;2023-05-24T05:08:08;15.40;;;9.30;;
76727;SDS011;65652;53.132;18.026;2023-05-24T05:10:35;14.60;;;7.90;;
76727;SDS011;65652;53.132;18.026;2023-05-24T05:13:02;14.30;;;8.20;;
76727;SDS011;65652;53.132;18.026;2023-05-24T05:15:30;10.30;;;6.20;;
76727;SDS011;65652;53.132;18.026;2023-05-24T05:17:56;15.10;;;8.20;;
76727;SDS011;65652;53.132;18.026;2023-05-24T05:20:23;17.20;;;8.90;;
76727;SDS011;65652;53.132;18.026;2023-05-24T05:22:51;16.40;;;8.90;;
76727;SDS011;65652;53.132;18.026;2023-05-24T05:25:18;15.20;;;9.50;;
76727;SDS011;65652;53.132;18.026;2023-05-24T05:27:45;13.20;;;7.90;;
76727;SDS011;65652;53.132;18.026;2023-05-24T05:30:12;16.30;;;9.10;;
76727;SDS011;65652;53.132;18.026;2023-05-24T05:32:39;14.90;;;9.40;;
76727;SDS011;65652;53.132;18.026;2023-05-24T05:35:06;14.00;;;8.20;;
76727;SDS011;65652;53.132;18.026;2023-05-24T05:37:33;14.00;;;8.10;;
76727;SDS011;65652;53.132;18.026;2023-05-24T05:40:00;16.20;;;8.60;;
76727;SDS011;65652;53.132;18.026;2023-05-24T05:42:26;14.00;;;9.10;;
76727;SDS011;65652;53.132;18.026;2023-05-24T05:44:53;14.30;;;8.60;;
76727;SDS011;65652;53.132;18.026;2023-05-24T05:47:20;15.10;;;9.70;;
76727;SDS011;65652;53.132;18.026;2023-05-24T05:49:47;16.60;;;9.90;;
76727;SDS011;65652;53.132;18.026;2023-05-24T05:52:14;14.40;;;7.60;;
76727;SDS011;65652;53.132;18.026;2023-05-24T05:54:41;15.30;;;9.10;;
76727;SDS011;65652;53.132;18.026;2023-05-24T05:57:07;11.50;;;7.40;;
76727;SDS011;65652;53.132;18.026;2023-05-24T05:59:36;14.10;;;8.50;;
76727;SDS011;65652;53.132;18.026;2023-05-24T06:02:03;13.30;;;7.60;;
76727;SDS011;65652;53.132;18.026;2023-05-24T06:04:31;13.30;;;8.00;;
76727;SDS011;65652;53.132;18.026;2023-05-24T06:06:58;12.80;;;8.30;;
76727;SDS011;65652;53.132;18.026;2023-05-24T06:09:25;16.60;;;9.90;;
76727;SDS011;65652;53.132;18.026;2023-05-24T06:11:52;13.20;;;7.90;;
76727;SDS011;65652;53.132;18.026;2023-05-24T06:14:19;11.60;;;7.10;;
76727;SDS011;65652;53.132;18.026;2023-05-24T06:16:47;12.90;;;7.30;;
76727;SDS011;65652;53.132;18.026;2023-05-24T06:19:14;13.20;;;8.90;;
76727;SDS011;65652;53.132;18.026;2023-05-24T06:21:42;15.30;;;9.90;;
76727;SDS011;65652;53.132;18.026;2023-05-24T06:24:13;15.90;;;8.80;;
76727;SDS011;65652;53.132;18.026;2023-05-24T06:26:41;11.60;;;7.00;;
76727;SDS011;65652;53.132;18.026;2023-05-24T06:29:08;14.70;;;7.70;;
76727;SDS011;65652;53.132;18.026;2023-05-24T06:31:35;14.00;;;8.40;;
76727;SDS011;65652;53.132;18.026;2023-05-24T06:34:02;12.80;;;8.20;;
76727;SDS011;65652;53.132;18.026;2023-05-24T06:36:29;14.10;;;8.00;;
76727;SDS011;65652;53.132;18.026;2023-05-24T06:38:59;16.00;;;9.60;;
76727;SDS011;65652;53.132;18.026;2023-05-24T06:41:26;11.90;;;7.40;;
76727;SDS011;65652;53.132;18.026;2023-05-24T06:43:53;14.10;;;8.10;;
76727;SDS011;65652;53.132;18.026;2023-05-24T06:46:20;15.20;;;8.60;;
76727;SDS011;65652;53.132;18.026;2023-05-24T06:48:47;11.90;;;8.00;;
76727;SDS011;65652;53.132;18.026;2023-05-24T06:51:14;14.20;;;8.40;;
76727;SDS011;65652;53.132;18.026;2023-05-24T06:53:41;12.80;;;7.70;;
76727;SDS011;65652;53.132;18.026;2023-05-24T06:56:08;15.40;;;8.40;;
76727;SDS011;65652;53.132;18.026;2023-05-24T06:58:35;12.30;;;7.90;;
76727;SDS011;65652;53.132;18.026;2023-05-24T07:01:02;12.90;;;8.50;;
76727;SDS011;65652;53.132;18.026;2023-05-24T07:03:30;14.60;;;8.80;;
76727;SDS011;65652;53.132;18.026;2023-05-24T07:05:57;16.40;;;7.90;;
76727;SDS011;65652;53.132;18.026;2023-05-24T07:08:24;15.40;;;8.00;;
76727;SDS011;65652;53.132;18.026;2023-05-24T07:10:54;13.00;;;8.20;;
76727;SDS011;65652;53.132;18.026;2023-05-24T07:13:22;12.50;;;7.70;;
76727;SDS011;65652;53.132;18.026;2023-05-24T07:15:49;13.30;;;7.80;;
76727;SDS011;65652;53.132;18.026;2023-05-24T07:18:16;15.40;;;8.20;;
76727;SDS011;65652;53.132;18.026;2023-05-24T07:20:42;14.70;;;8.30;;
76727;SDS011;65652;53.132;18.026;2023-05-24T07:23:09;14.20;;;8.70;;
76727;SDS011;65652;53.132;18.026;2023-05-24T07:25:37;14.70;;;8.20;;
76727;SDS011;65652;53.132;18.026;2023-05-24T07:28:04;13.20;;;7.50;;
76727;SDS011;65652;53.132;18.026;2023-05-24T07:30:31;14.20;;;8.70;;
76727;SDS011;65652;53.132;18.026;2023-05-24T07:32:58;12.70;;;8.00;;
76727;SDS011;65652;53.132;18.026;2023-05-24T07:35:25;13.60;;;8.60;;
76727;SDS011;65652;53.132;18.026;2023-05-24T07:37:54;12.40;;;7.80;;
76727;SDS011;65652;53.132;18.026;2023-05-24T07:40:20;15.00;;;8.50;;
76727;SDS011;65652;53.132;18.026;2023-05-24T07:45:15;12.70;;;7.70;;
76727;SDS011;65652;53.132;18.026;2023-05-24T07:47:42;13.20;;;8.50;;
76727;SDS011;65652;53.132;18.026;2023-05-24T07:50:09;12.30;;;8.10;;
76727;SDS011;65652;53.132;18.026;2023-05-24T07:55:04;12.40;;;7.60;;
76727;SDS011;65652;53.132;18.026;2023-05-24T07:57:31;13.90;;;8.30;;
76727;SDS011;65652;53.132;18.026;2023-05-24T07:59:59;12.70;;;8.40;;
76727;SDS011;65652;53.132;18.026;2023-05-24T08:02:38;11.10;;;7.00;;
76727;SDS011;65652;53.132;18.026;2023-05-24T08:05:06;11.60;;;7.10;;
76727;SDS011;65652;53.132;18.026;2023-05-24T08:07:35;11.50;;;7.80;;
76727;SDS011;65652;53.132;18.026;2023-05-24T08:10:02;12.40;;;8.20;;
76727;SDS011;65652;53.132;18.026;2023-05-24T08:12:29;13.80;;;8.30;;
76727;SDS011;65652;53.132;18.026;2023-05-24T08:14:56;11.70;;;7.60;;
76727;SDS011;65652;53.132;18.026;2023-05-24T08:17:23;12.70;;;7.80;;
76727;SDS011;65652;53.132;18.026;2023-05-24T08:19:50;14.10;;;8.30;;
76727;SDS011;65652;53.132;18.026;2023-05-24T08:22:17;11.30;;;6.80;;
76727;SDS011;65652;53.132;18.026;2023-05-24T08:24:45;11.40;;;6.90;;
76727;SDS011;65652;53.132;18.026;2023-05-24T08:27:12;9.90;;;5.50;;
76727;SDS011;65652;53.132;18.026;2023-05-24T08:29:39;11.80;;;7.30;;
76727;SDS011;65652;53.132;18.026;2023-05-24T08:32:06;13.60;;;9.10;;
76727;SDS011;65652;53.132;18.026;2023-05-24T08:34:35;11.10;;;6.80;;
76727;SDS011;65652;53.132;18.026;2023-05-24T08:37:03;12.10;;;6.80;;
76727;SDS011;65652;53.132;18.026;2023-05-24T08:39:30;10.70;;;5.90;;
76727;SDS011;65652;53.132;18.026;2023-05-24T08:41:58;12.10;;;7.50;;
76727;SDS011;65652;53.132;18.026;2023-05-24T08:44:27;10.60;;;6.80;;
76727;SDS011;65652;53.132;18.026;2023-05-24T08:46:57;13.00;;;8.10;;
76727;SDS011;65652;53.132;18.026;2023-05-24T08:51:52;13.00;;;7.10;;
76727;SDS011;65652;53.132;18.026;2023-05-24T08:54:19;9.80;;;6.70;;
76727;SDS011;65652;53.132;18.026;2023-05-24T08:56:46;12.60;;;7.90;;
76727;SDS011;65652;53.132;18.026;2023-05-24T08:59:14;12.50;;;6.60;;
76727;SDS011;65652;53.132;18.026;2023-05-24T09:01:41;8.70;;;5.30;;
76727;SDS011;65652;53.132;18.026;2023-05-24T09:04:08;13.00;;;7.50;;
76727;SDS011;65652;53.132;18.026;2023-05-24T09:06:35;11.80;;;7.60;;
76727;SDS011;65652;53.132;18.026;2023-05-24T09:09:02;9.90;;;5.50;;
76727;SDS011;65652;53.132;18.026;2023-05-24T09:11:30;9.70;;;6.40;;
76727;SDS011;65652;53.132;18.026;2023-05-24T09:13:59;11.00;;;6.90;;
76727;SDS011;65652;53.132;18.026;2023-05-24T09:16:26;9.30;;;6.10;;
76727;SDS011;65652;53.132;18.026;2023-05-24T09:18:54;11.40;;;6.80;;
76727;SDS011;65652;53.132;18.026;2023-05-24T09:21:20;10.70;;;7.20;;
76727;SDS011;65652;53.132;18.026;2023-05-24T09:23:48;11.00;;;7.20;;
76727;SDS011;65652;53.132;18.026;2023-05-24T09:26:14;9.60;;;5.80;;
76727;SDS011;65652;53.132;18.026;2023-05-24T09:28:42;12.10;;;8.00;;
76727;SDS011;65652;53.132;18.026;2023-05-24T09:31:09;10.30;;;6.70;;
76727;SDS011;65652;53.132;18.026;2023-05-24T09:33:37;13.10;;;7.90;;
76727;SDS011;65652;53.132;18.026;2023-05-24T09:36:05;9.20;;;5.80;;
76727;SDS011;65652;53.132;18.026;2023-05-24T09:38:32;12.50;;;7.90;;
76727;SDS011;65652;53.132;18.026;2023-05-24T09:41:02;13.00;;;7.90;;
76727;SDS011;65652;53.132;18.026;2023-05-24T09:43:30;9.80;;;6.50;;
76727;SDS011;65652;53.132;18.026;2023-05-24T09:46:03;10.20;;;7.20;;
76727;SDS011;65652;53.132;18.026;2023-05-24T09:48:30;10.00;;;7.00;;
76727;SDS011;65652;53.132;18.026;2023-05-24T09:51:06;10.00;;;6.60;;
76727;SDS011;65652;53.132;18.026;2023-05-24T09:56:04;11.40;;;7.40;;
76727;SDS011;65652;53.132;18.026;2023-05-24T09:58:32;11.50;;;8.00;;
76727;SDS011;65652;53.132;18.026;2023-05-24T10:01:05;9.50;;;6.50;;
76727;SDS011;65652;53.132;18.026;2023-05-24T10:03:33;8.90;;;5.10;;
76727;SDS011;65652;53.132;18.026;2023-05-24T10:06:01;9.90;;;6.90;;
76727;SDS011;65652;53.132;18.026;2023-05-24T10:08:32;11.30;;;7.10;;
76727;SDS011;65652;53.132;18.026;2023-05-24T10:11:01;10.40;;;6.90;;
76727;SDS011;65652;53.132;18.026;2023-05-24T10:13:32;11.30;;;7.90;;
76727;SDS011;65652;53.132;18.026;2023-05-24T10:16:02;9.40;;;6.30;;
76727;SDS011;65652;53.132;18.026;2023-05-24T10:18:29;11.90;;;6.50;;
76727;SDS011;65652;53.132;18.026;2023-05-24T10:20:56;10.20;;;6.60;;
76727;SDS011;65652;53.132;18.026;2023-05-24T10:23:25;10.70;;;6.30;;
76727;SDS011;65652;53.132;18.026;2023-05-24T10:26:03;10.00;;;6.70;;
76727;SDS011;65652;53.132;18.026;2023-05-24T10:28:35;9.50;;;6.30;;
76727;SDS011;65652;53.132;18.026;2023-05-24T10:33:45;9.30;;;6.00;;
76727;SDS011;65652;53.132;18.026;2023-05-24T10:36:14;9.30;;;6.40;;
76727;SDS011;65652;53.132;18.026;2023-05-24T10:38:41;9.60;;;6.90;;
76727;SDS011;65652;53.132;18.026;2023-05-24T10:41:09;10.30;;;7.10;;
76727;SDS011;65652;53.132;18.026;2023-05-24T10:43:38;9.30;;;5.90;;
76727;SDS011;65652;53.132;18.026;2023-05-24T10:46:07;9.10;;;6.00;;
76727;SDS011;65652;53.132;18.026;2023-05-24T10:48:35;9.60;;;5.40;;
76727;SDS011;65652;53.132;18.026;2023-05-24T10:51:26;8.50;;;5.50;;
76727;SDS011;65652;53.132;18.026;2023-05-24T10:54:10;10.10;;;6.60;;
76727;SDS011;65652;53.132;18.026;2023-05-24T10:56:39;8.20;;;5.80;;
76727;SDS011;65652;53.132;18.026;2023-05-24T10:59:08;8.30;;;5.10;;
76727;SDS011;65652;53.132;18.026;2023-05-24T11:01:35;8.00;;;5.80;;
76727;SDS011;65652;53.132;18.026;2023-05-24T11:04:05;9.30;;;6.20;;
76727;SDS011;65652;53.132;18.026;2023-05-24T11:09:16;8.20;;;5.50;;
76727;SDS011;65652;53.132;18.026;2023-05-24T11:11:46;8.60;;;5.50;;
76727;SDS011;65652;53.132;18.026;2023-05-24T11:14:17;9.20;;;5.70;;
76727;SDS011;65652;53.132;18.026;2023-05-24T11:16:46;8.70;;;6.60;;
76727;SDS011;65652;53.132;18.026;2023-05-24T11:19:19;9.80;;;5.20;;
76727;SDS011;65652;53.132;18.026;2023-05-24T11:21:48;9.20;;;5.10;;
76727;SDS011;65652;53.132;18.026;2023-05-24T11:24:16;9.60;;;6.30;;
76727;SDS011;65652;53.132;18.026;2023-05-24T11:26:44;8.40;;;5.40;;
76727;SDS011;65652;53.132;18.026;2023-05-24T11:31:46;8.60;;;6.20;;
76727;SDS011;65652;53.132;18.026;2023-05-24T11:34:31;9.30;;;6.70;;
76727;SDS011;65652;53.132;18.026;2023-05-24T11:36:59;7.20;;;5.10;;
76727;SDS011;65652;53.132;18.026;2023-05-24T11:39:31;10.30;;;6.20;;
76727;SDS011;65652;53.132;18.026;2023-05-24T11:42:04;6.90;;;4.20;;
76727;SDS011;65652;53.132;18.026;2023-05-24T11:44:32;8.30;;;6.20;;
76727;SDS011;65652;53.132;18.026;2023-05-24T11:47:01;10.30;;;6.30;;
76727;SDS011;65652;53.132;18.026;2023-05-24T11:49:29;10.80;;;6.50;;
76727;SDS011;65652;53.132;18.026;2023-05-24T11:51:56;9.50;;;5.90;;
76727;SDS011;65652;53.132;18.026;2023-05-24T11:54:25;9.60;;;7.10;;
76727;SDS011;65652;53.132;18.026;2023-05-24T11:56:53;9.80;;;6.30;;
76727;SDS011;65652;53.132;18.026;2023-05-24T11:59:24;9.20;;;6.00;;
76727;SDS011;65652;53.132;18.026;2023-05-24T12:01:56;8.40;;;6.10;;
76727;SDS011;65652;53.132;18.026;2023-05-24T12:04:25;11.40;;;6.60;;
76727;SDS011;65652;53.132;18.026;2023-05-24T12:06:53;10.90;;;6.50;;
76727;SDS011;65652;53.132;18.026;2023-05-24T12:11:49;10.40;;;7.70;;
76727;SDS011;65652;53.132;18.026;2023-05-24T12:14:24;10.40;;;7.60;;
76727;SDS011;65652;53.132;18.026;2023-05-24T12:16:54;6.90;;;5.30;;
76727;SDS011;65652;53.132;18.026;2023-05-24T12:19:22;10.20;;;6.80;;
76727;SDS011;65652;53.132;18.026;2023-05-24T12:21:56;14.50;;;9.70;;
76727;SDS011;65652;53.132;18.026;2023-05-24T12:24:24;8.20;;;6.50;;
76727;SDS011;65652;53.132;18.026;2023-05-24T12:26:56;10.50;;;7.60;;
76727;SDS011;65652;53.132;18.026;2023-05-24T12:29:24;7.70;;;5.60;;
76727;SDS011;65652;53.132;18.026;2023-05-24T12:31:51;10.00;;;7.40;;
76727;SDS011;65652;53.132;18.026;2023-05-24T12:34:19;9.60;;;7.70;;
76727;SDS011;65652;53.132;18.026;2023-05-24T12:41:44;8.60;;;7.00;;
76727;SDS011;65652;53.132;18.026;2023-05-24T12:44:11;9.50;;;7.20;;
76727;SDS011;65652;53.132;18.026;2023-05-24T12:46:38;7.80;;;6.00;;
76727;SDS011;65652;53.132;18.026;2023-05-24T12:49:05;9.30;;;6.40;;
76727;SDS011;65652;53.132;18.026;2023-05-24T12:51:32;8.40;;;6.60;;
76727;SDS011;65652;53.132;18.026;2023-05-24T12:53:59;7.90;;;5.90;;
76727;SDS011;65652;53.132;18.026;2023-05-24T12:56:30;8.90;;;6.70;;
76727;SDS011;65652;53.132;18.026;2023-05-24T12:58:58;9.80;;;6.10;;
76727;SDS011;65652;53.132;18.026;2023-05-24T13:01:25;8.10;;;5.60;;
76727;SDS011;65652;53.132;18.026;2023-05-24T13:03:52;8.80;;;7.00;;
76727;SDS011;65652;53.132;18.026;2023-05-24T13:06:20;10.20;;;7.30;;
76727;SDS011;65652;53.132;18.026;2023-05-24T13:08:47;9.30;;;6.50;;
76727;SDS011;65652;53.132;18.026;2023-05-24T13:11:14;15.90;;;8.80;;
76727;SDS011;65652;53.132;18.026;2023-05-24T13:13:41;10.30;;;7.00;;
76727;SDS011;65652;53.132;18.026;2023-05-24T13:16:10;10.60;;;7.10;;
76727;SDS011;65652;53.132;18.026;2023-05-24T13:18:38;10.10;;;7.00;;
76727;SDS011;65652;53.132;18.026;2023-05-24T13:21:04;7.40;;;5.60;;
76727;SDS011;65652;53.132;18.026;2023-05-24T13:23:32;10.70;;;7.90;;
76727;SDS011;65652;53.132;18.026;2023-05-24T13:26:00;12.30;;;8.30;;
76727;SDS011;65652;53.132;18.026;2023-05-24T13:28:32;9.00;;;6.80;;
76727;SDS011;65652;53.132;18.026;2023-05-24T13:30:59;7.90;;;5.60;;
76727;SDS011;65652;53.132;18.026;2023-05-24T13:35:57;11.50;;;7.00;;
76727;SDS011;65652;53.132;18.026;2023-05-24T13:38:24;9.50;;;7.10;;
76727;SDS011;65652;53.132;18.026;2023-05-24T13:40:51;12.40;;;7.60;;
76727;SDS011;65652;53.132;18.026;2023-05-24T13:43:19;9.50;;;6.60;;
76727;SDS011;65652;53.132;18.026;2023-05-24T13:45:46;12.10;;;8.50;;
76727;SDS011;65652;53.132;18.026;2023-05-24T13:48:13;10.70;;;8.10;;
76727;SDS011;65652;53.132;18.026;2023-05-24T13:50:39;10.50;;;7.50;;
76727;SDS011;65652;53.132;18.026;2023-05-24T13:53:06;11.30;;;7.00;;
76727;SDS011;65652;53.132;18.026;2023-05-24T13:58:03;11.70;;;8.40;;
76727;SDS011;65652;53.132;18.026;2023-05-24T14:00:30;11.30;;;7.00;;
76727;SDS011;65652;53.132;18.026;2023-05-24T14:02:58;11.10;;;5.40;;
76727;SDS011;65652;53.132;18.026;2023-05-24T14:07:57;13.30;;;8.90;;
76727;SDS011;65652;53.132;18.026;2023-05-24T14:10:29;13.10;;;9.60;;
76727;SDS011;65652;53.132;18.026;2023-05-24T14:12:56;9.20;;;6.60;;
76727;SDS011;65652;53.132;18.026;2023-05-24T14:15:23;13.90;;;9.40;;
76727;SDS011;65652;53.132;18.026;2023-05-24T14:17:50;9.30;;;7.40;;
76727;SDS011;65652;53.132;18.026;2023-05-24T14:20:17;12.00;;;7.40;;
76727;SDS011;65652;53.132;18.026;2023-05-24T14:22:43;10.70;;;7.80;;
76727;SDS011;65652;53.132;18.026;2023-05-24T14:25:10;10.50;;;7.70;;
76727;SDS011;65652;53.132;18.026;2023-05-24T14:27:37;9.40;;;6.00;;
76727;SDS011;65652;53.132;18.026;2023-05-24T14:30:06;11.10;;;7.50;;
76727;SDS011;65652;53.132;18.026;2023-05-24T14:35:00;9.90;;;6.50;;
76727;SDS011;65652;53.132;18.026;2023-05-24T14:37:27;12.00;;;9.10;;
76727;SDS011;65652;53.132;18.026;2023-05-24T14:39:54;11.20;;;7.70;;
76727;SDS011;65652;53.132;18.026;2023-05-24T14:42:20;10.20;;;7.60;;
76727;SDS011;65652;53.132;18.026;2023-05-24T14:44:47;9.50;;;6.50;;
76727;SDS011;65652;53.132;18.026;2023-05-24T14:47:14;10.30;;;7.70;;
76727;SDS011;65652;53.132;18.026;2023-05-24T14:49:41;11.20;;;7.70;;
76727;SDS011;65652;53.132;18.026;2023-05-24T14:52:08;12.80;;;9.10;;
76727;SDS011;65652;53.132;18.026;2023-05-24T14:54:35;12.80;;;8.40;;
76727;SDS011;65652;53.132;18.026;2023-05-24T14:57:02;12.10;;;8.40;;
76727;SDS011;65652;53.132;18.026;2023-05-24T14:59:29;10.00;;;7.30;;
76727;SDS011;65652;53.132;18.026;2023-05-24T15:01:56;13.00;;;9.20;;
76727;SDS011;65652;53.132;18.026;2023-05-24T15:04:23;9.40;;;6.70;;
76727;SDS011;65652;53.132;18.026;2023-05-24T15:06:50;10.40;;;7.70;;
76727;SDS011;65652;53.132;18.026;2023-05-24T15:09:17;11.70;;;8.00;;
76727;SDS011;65652;53.132;18.026;2023-05-24T15:11:44;11.90;;;6.70;;
76727;SDS011;65652;53.132;18.026;2023-05-24T15:14:11;8.80;;;6.10;;
76727;SDS011;65652;53.132;18.026;2023-05-24T15:16:38;11.60;;;8.80;;
76727;SDS011;65652;53.132;18.026;2023-05-24T15:19:05;13.20;;;6.90;;
76727;SDS011;65652;53.132;18.026;2023-05-24T15:21:32;14.00;;;8.30;;
76727;SDS011;65652;53.132;18.026;2023-05-24T15:23:59;11.20;;;8.00;;
76727;SDS011;65652;53.132;18.026;2023-05-24T15:26:26;11.10;;;7.70;;
76727;SDS011;65652;53.132;18.026;2023-05-24T15:28:53;11.80;;;7.00;;
76727;SDS011;65652;53.132;18.026;2023-05-24T15:31:20;10.10;;;6.60;;
76727;SDS011;65652;53.132;18.026;2023-05-24T15:33:47;10.60;;;8.60;;